Aérodrome :







RETROUVEZ-NOUS SUR...

 
LOGIN :

S'inscrire | Disclaimer

   EN    FR    IT 

 









Légende :    VFR   VFR Marginal   IFR   IFR Intensif   IFR Très Intensif
Visi : 
Plafond : 
>= 8 km
>= 3000ft
5 à 8 km
1000 à 3000 ft
1500m à 5 km
500 à 1000 ft
800 à 1500m
200 à 500 ft
< 800m
< 200 ft
Symboles :   Orages  Brouillard  Fortes neiges  Fortes précipitations  Vent > 20 kt






- Altitude de l'aérodrome : 626 ft


KCAR - Caribou Municipal

DERNIER METAR :
  • 161807Z AUTO 20009KT 10SM BKN029 OVC034 M01/M07 A2987 RMK AO2 T10111072

METARs EXPIRÉS :
  • 161754Z AUTO 20011KT 10SM BKN030 BKN034 OVC055 M01/M07 A2987 RMK AO2 SLP130 T10111072 11011 21083 56014
  • 161727Z AUTO 21009KT 10SM BKN030 OVC055 M01/M07 A2988 RMK AO2 T10111072
  • 161654Z AUTO 20009KT 10SM OVC026 M02/M08 A2988 RMK AO2 SLP133 T10221083
  • 161554Z AUTO 21007KT 10SM BKN026 OVC033 M03/M09 A2990 RMK AO2 SLP140 T10331089
  • 161526Z AUTO 20010KT 10SM BKN024 BKN029 OVC041 M04/M09 A2991 RMK AO2 T10391089

TAF KCAR
Valide du 16 à 18h jusqu'au 17 à 18h UTC


161815Z 1618/1718 22010G15KT P6SM BKN028
FM162300 23009KT P6SM BKN035
FM170700 00000KT P6SM BKN050
FM171000 00000KT P6SM OVC027
FM171600 33009KT P6SM BKN030



MET'MAP, la Météo Aéronautique d'un coup d'oeil ! - Copyright ORBIFLY Décembre 2007 - Disclaimer

ORBIFLY MET'MAP TEAM :

Programmation & Développement : Alexandra Zaïnal
Sur une idée originale de : Baudouin d'Aumeries
Assistance à la programmation : Marc-Olivier Méhu
Soutien technique & logistique : Manuel Goepfert

Contact : metmap@orbifly.com




SOURCES & CREDITS :

   NOAA